sensor_id;sensor_type;location;lat;lon;timestamp;pressure;altitude;pressure_sealevel;temperature;humidity
78170;BME280;67412;49.892;14.490;2023-04-01T00:01:00;95618.75;;;7.61;79.53
78170;BME280;67412;49.892;14.490;2023-04-01T00:03:27;95617.84;;;7.64;79.34
78170;BME280;67412;49.892;14.490;2023-04-01T00:05:54;95617.88;;;7.62;79.47
78170;BME280;67412;49.892;14.490;2023-04-01T00:08:20;95616.81;;;7.69;78.44
78170;BME280;67412;49.892;14.490;2023-04-01T00:10:46;95614.25;;;7.69;78.96
78170;BME280;67412;49.892;14.490;2023-04-01T00:13:11;95609.94;;;7.71;77.79
78170;BME280;67412;49.892;14.490;2023-04-01T00:15:37;95614.38;;;7.65;78.74
78170;BME280;67412;49.892;14.490;2023-04-01T00:18:02;95611.53;;;7.75;78.18
78170;BME280;67412;49.892;14.490;2023-04-01T00:20:28;95615.06;;;7.71;78.43
78170;BME280;67412;49.892;14.490;2023-04-01T00:22:53;95611.59;;;7.72;78.66
78170;BME280;67412;49.892;14.490;2023-04-01T00:25:19;95621.91;;;7.69;78.52
78170;BME280;67412;49.892;14.490;2023-04-01T00:27:44;95615.78;;;7.75;78.19
78170;BME280;67412;49.892;14.490;2023-04-01T00:30:11;95614.31;;;7.68;78.83
78170;BME280;67412;49.892;14.490;2023-04-01T00:32:37;95608.41;;;7.66;78.81
78170;BME280;67412;49.892;14.490;2023-04-01T00:35:03;95605.59;;;7.73;77.77
78170;BME280;67412;49.892;14.490;2023-04-01T00:37:29;95609.03;;;7.72;77.95
78170;BME280;67412;49.892;14.490;2023-04-01T00:39:55;95618.34;;;7.75;78.21
78170;BME280;67412;49.892;14.490;2023-04-01T00:42:21;95616.72;;;7.72;77.88
78170;BME280;67412;49.892;14.490;2023-04-01T00:44:54;95612.53;;;7.70;77.83
78170;BME280;67412;49.892;14.490;2023-04-01T00:47:20;95607.31;;;7.73;77.75
78170;BME280;67412;49.892;14.490;2023-04-01T00:49:49;95614.25;;;7.69;77.93
78170;BME280;67412;49.892;14.490;2023-04-01T00:52:18;95611.53;;;7.75;77.46
78170;BME280;67412;49.892;14.490;2023-04-01T00:54:47;95608.91;;;7.77;77.50
78170;BME280;67412;49.892;14.490;2023-04-01T00:57:23;95614.84;;;7.77;77.16
78170;BME280;67412;49.892;14.490;2023-04-01T00:59:50;95617.63;;;7.71;77.47
78170;BME280;67412;49.892;14.490;2023-04-01T01:02:18;95610.03;;;7.68;78.01
78170;BME280;67412;49.892;14.490;2023-04-01T01:04:44;95619.25;;;7.72;77.83
78170;BME280;67412;49.892;14.490;2023-04-01T01:12:24;95598.03;;;7.70;77.12
78170;BME280;67412;49.892;14.490;2023-04-01T01:17:48;95606.59;;;7.69;77.33
78170;BME280;67412;49.892;14.490;2023-04-01T01:37:13;95602.41;;;7.67;77.65
78170;BME280;67412;49.892;14.490;2023-04-01T01:39:43;95606.78;;;7.63;78.51
78170;BME280;67412;49.892;14.490;2023-04-01T01:42:13;95606.78;;;7.63;78.44
78170;BME280;67412;49.892;14.490;2023-04-01T01:44:40;95604.09;;;7.68;78.17
78170;BME280;67412;49.892;14.490;2023-04-01T01:47:08;95600.78;;;7.64;78.77
78170;BME280;67412;49.892;14.490;2023-04-01T01:49:35;95602.53;;;7.62;79.09
78170;BME280;67412;49.892;14.490;2023-04-01T01:52:01;95612.66;;;7.65;78.88
78170;BME280;67412;49.892;14.490;2023-04-01T01:54:26;95613.56;;;7.64;78.94
78170;BME280;67412;49.892;14.490;2023-04-01T01:56:57;95608.53;;;7.61;79.29
78170;BME280;67412;49.892;14.490;2023-04-01T01:59:26;95607.78;;;7.58;79.84
78170;BME280;67412;49.892;14.490;2023-04-01T02:01:55;95601.91;;;7.56;79.71
78170;BME280;67412;49.892;14.490;2023-04-01T02:04:22;95610.50;;;7.53;80.56
78170;BME280;67412;49.892;14.490;2023-04-01T02:07:02;95610.50;;;7.53;80.61
78170;BME280;67412;49.892;14.490;2023-04-01T02:09:29;95591.81;;;7.51;80.38
78170;BME280;67412;49.892;14.490;2023-04-01T02:12:01;95602.03;;;7.51;80.79
78170;BME280;67412;49.892;14.490;2023-04-01T02:17:05;95607.13;;;7.51;80.06
78170;BME280;67412;49.892;14.490;2023-04-01T02:19:37;95609.81;;;7.47;80.48
78170;BME280;67412;49.892;14.490;2023-04-01T02:22:07;95602.09;;;7.50;80.19
78170;BME280;67412;49.892;14.490;2023-04-01T02:24:35;95608.81;;;7.52;79.65
78170;BME280;67412;49.892;14.490;2023-04-01T02:27:03;95609.78;;;7.48;80.30
78170;BME280;67412;49.892;14.490;2023-04-01T02:29:29;95614.09;;;7.46;80.01
78170;BME280;67412;49.892;14.490;2023-04-01T02:31:55;95608.97;;;7.46;79.95
78170;BME280;67412;49.892;14.490;2023-04-01T02:34:22;95613.97;;;7.51;79.22
78170;BME280;67412;49.892;14.490;2023-04-01T02:36:49;95609.81;;;7.47;79.94
78170;BME280;67412;49.892;14.490;2023-04-01T02:39:15;95614.03;;;7.49;79.76
78170;BME280;67412;49.892;14.490;2023-04-01T02:41:43;95625.09;;;7.50;79.22
78170;BME280;67412;49.892;14.490;2023-04-01T02:44:10;95617.56;;;7.45;79.72
78170;BME280;67412;49.892;14.490;2023-04-01T02:46:35;95610.72;;;7.46;80.03
78170;BME280;67412;49.892;14.490;2023-04-01T02:49:01;95618.22;;;7.50;78.89
78170;BME280;67412;49.892;14.490;2023-04-01T02:51:26;95622.47;;;7.51;79.37
78170;BME280;67412;49.892;14.490;2023-04-01T02:53:51;95620.72;;;7.53;79.11
78170;BME280;67412;49.892;14.490;2023-04-01T02:56:17;95627.47;;;7.54;78.57
78170;BME280;67412;49.892;14.490;2023-04-01T02:58:42;95616.47;;;7.52;78.50
78170;BME280;67412;49.892;14.490;2023-04-01T03:01:08;95627.47;;;7.54;78.73
78170;BME280;67412;49.892;14.490;2023-04-01T03:03:33;95623.97;;;7.58;78.19
78170;BME280;67412;49.892;14.490;2023-04-01T03:06:04;95625.59;;;7.61;78.13
78170;BME280;67412;49.892;14.490;2023-04-01T03:08:30;95628.16;;;7.61;78.38
78170;BME280;67412;49.892;14.490;2023-04-01T03:10:55;95633.19;;;7.64;77.63
78170;BME280;67412;49.892;14.490;2023-04-01T03:13:20;95631.28;;;7.69;77.49
78170;BME280;67412;49.892;14.490;2023-04-01T03:15:46;95637.34;;;7.66;78.10
78170;BME280;67412;49.892;14.490;2023-04-01T03:18:11;95636.50;;;7.66;78.10
78170;BME280;67412;49.892;14.490;2023-04-01T03:20:36;95630.53;;;7.67;77.53
78170;BME280;67412;49.892;14.490;2023-04-01T03:23:02;95638.91;;;7.72;77.44
78170;BME280;67412;49.892;14.490;2023-04-01T03:25:27;95633.78;;;7.72;77.45
78170;BME280;67412;49.892;14.490;2023-04-01T03:27:53;95634.59;;;7.72;76.88
78170;BME280;67412;49.892;14.490;2023-04-01T03:30:19;95633.59;;;7.78;77.01
78170;BME280;67412;49.892;14.490;2023-04-01T03:32:44;95633.63;;;7.76;77.00
78170;BME280;67412;49.892;14.490;2023-04-01T03:35:10;95637.09;;;7.75;76.98
78170;BME280;67412;49.892;14.490;2023-04-01T03:37:35;95643.03;;;7.76;77.08
78170;BME280;67412;49.892;14.490;2023-04-01T03:40:00;95628.50;;;7.76;76.63
78170;BME280;67412;49.892;14.490;2023-04-01T03:42:26;95637.94;;;7.76;76.91
78170;BME280;67412;49.892;14.490;2023-04-01T03:44:51;95632.03;;;7.72;76.93
78170;BME280;67412;49.892;14.490;2023-04-01T03:47:16;95642.25;;;7.72;77.43
78170;BME280;67412;49.892;14.490;2023-04-01T03:49:42;95637.94;;;7.76;76.99
78170;BME280;67412;49.892;14.490;2023-04-01T03:52:11;95637.13;;;7.74;76.75
78170;BME280;67412;49.892;14.490;2023-04-01T03:54:36;95639.53;;;7.78;76.61
78170;BME280;67412;49.892;14.490;2023-04-01T03:57:02;95641.25;;;7.78;76.60
78170;BME280;67412;49.892;14.490;2023-04-01T03:59:27;95651.59;;;7.75;77.15
78170;BME280;67412;49.892;14.490;2023-04-01T04:01:52;95651.47;;;7.78;76.70
78170;BME280;67412;49.892;14.490;2023-04-01T04:04:17;95654.16;;;7.73;76.99
78170;BME280;67412;49.892;14.490;2023-04-01T04:06:43;95663.47;;;7.76;77.16
78170;BME280;67412;49.892;14.490;2023-04-01T04:09:08;95659.38;;;7.70;77.60
78170;BME280;67412;49.892;14.490;2023-04-01T04:11:33;95661.94;;;7.70;77.03
78170;BME280;67412;49.892;14.490;2023-04-01T04:13:59;95665.31;;;7.71;76.99
78170;BME280;67412;49.892;14.490;2023-04-01T04:16:25;95661.38;;;7.61;77.72
78170;BME280;67412;49.892;14.490;2023-04-01T04:18:50;95665.56;;;7.63;78.03
78170;BME280;67412;49.892;14.490;2023-04-01T04:21:16;95669.31;;;7.52;78.52
78170;BME280;67412;49.892;14.490;2023-04-01T04:23:42;95672.47;;;7.60;78.22
78170;BME280;67412;49.892;14.490;2023-04-01T04:26:11;95672.63;;;7.54;78.48
78170;BME280;67412;49.892;14.490;2023-04-01T04:28:36;95671.84;;;7.52;78.67
78170;BME280;67412;49.892;14.490;2023-04-01T04:31:02;95679.28;;;7.59;78.60
78170;BME280;67412;49.892;14.490;2023-04-01T04:33:29;95674.50;;;7.49;78.73
78170;BME280;67412;49.892;14.490;2023-04-01T04:35:56;95681.44;;;7.44;79.19
78170;BME280;67412;49.892;14.490;2023-04-01T04:38:22;95676.31;;;7.45;79.24
78170;BME280;67412;49.892;14.490;2023-04-01T04:40:47;95687.97;;;7.54;78.62
78170;BME280;67412;49.892;14.490;2023-04-01T04:43:14;95680.34;;;7.52;78.77
78170;BME280;67412;49.892;14.490;2023-04-01T04:45:41;95686.34;;;7.51;78.57
78170;BME280;67412;49.892;14.490;2023-04-01T04:48:08;95690.81;;;7.43;79.23
78170;BME280;67412;49.892;14.490;2023-04-01T04:50:34;95690.25;;;7.34;79.32
78170;BME280;67412;49.892;14.490;2023-04-01T04:52:59;95684.13;;;7.39;79.22
78170;BME280;67412;49.892;14.490;2023-04-01T04:55:25;95697.59;;;7.46;78.31
78170;BME280;67412;49.892;14.490;2023-04-01T04:57:50;95687.41;;;7.44;78.75
78170;BME280;67412;49.892;14.490;2023-04-01T05:00:15;95689.94;;;7.44;78.79
78170;BME280;67412;49.892;14.490;2023-04-01T05:02:41;95689.22;;;7.41;79.05
78170;BME280;67412;49.892;14.490;2023-04-01T05:05:07;95694.34;;;7.39;78.94
78170;BME280;67412;49.892;14.490;2023-04-01T05:07:33;95691.75;;;7.41;79.04
78170;BME280;67412;49.892;14.490;2023-04-01T05:09:58;95693.44;;;7.42;78.98
78170;BME280;67412;49.892;14.490;2023-04-01T05:12:24;95706.25;;;7.40;78.84
78170;BME280;67412;49.892;14.490;2023-04-01T05:14:49;95697.09;;;7.32;79.33
78170;BME280;67412;49.892;14.490;2023-04-01T05:17:14;95703.69;;;7.40;78.97
78170;BME280;67412;49.892;14.490;2023-04-01T05:19:40;95698.50;;;7.43;78.40
78170;BME280;67412;49.892;14.490;2023-04-01T05:22:06;95697.75;;;7.40;79.09
78170;BME280;67412;49.892;14.490;2023-04-01T05:24:31;95705.31;;;7.43;78.70
78170;BME280;67412;49.892;14.490;2023-04-01T05:26:57;95707.13;;;7.39;78.74
78170;BME280;67412;49.892;14.490;2023-04-01T05:29:24;95712.06;;;7.45;78.52
78170;BME280;67412;49.892;14.490;2023-04-01T05:31:49;95712.63;;;7.55;78.46
78170;BME280;67412;49.892;14.490;2023-04-01T05:34:14;95723.53;;;7.61;77.82
78170;BME280;67412;49.892;14.490;2023-04-01T05:36:40;95714.94;;;7.64;78.03
78170;BME280;67412;49.892;14.490;2023-04-01T05:39:06;95718.38;;;7.63;77.93
78170;BME280;67412;49.892;14.490;2023-04-01T05:41:35;95710.69;;;7.64;77.78
78170;BME280;67412;49.892;14.490;2023-04-01T05:44:00;95718.19;;;7.69;77.80
78170;BME280;67412;49.892;14.490;2023-04-01T05:46:25;95713.91;;;7.69;78.14
78170;BME280;67412;49.892;14.490;2023-04-01T05:48:51;95708.81;;;7.69;77.70
78170;BME280;67412;49.892;14.490;2023-04-01T05:51:16;95703.56;;;7.74;77.20
78170;BME280;67412;49.892;14.490;2023-04-01T05:53:42;95709.50;;;7.76;77.14
78170;BME280;67412;49.892;14.490;2023-04-01T05:56:08;95703.34;;;7.82;77.17
78170;BME280;67412;49.892;14.490;2023-04-01T05:58:35;95708.50;;;7.80;76.55
78170;BME280;67412;49.892;14.490;2023-04-01T06:01:09;95709.09;;;7.88;76.23
78170;BME280;67412;49.892;14.490;2023-04-01T06:03:35;95705.81;;;7.85;76.41
78170;BME280;67412;49.892;14.490;2023-04-01T06:06:01;95716.47;;;7.99;75.03
78170;BME280;67412;49.892;14.490;2023-04-01T06:08:28;95721.56;;;7.99;75.39
78170;BME280;67412;49.892;14.490;2023-04-01T06:19:23;95722.63;;;8.21;74.01
78170;BME280;67412;49.892;14.490;2023-04-01T06:22:12;95720.19;;;8.16;74.39
78170;BME280;67412;49.892;14.490;2023-04-01T06:35:28;95724.06;;;8.30;74.05
78170;BME280;67412;49.892;14.490;2023-04-01T06:40:50;95733.06;;;8.43;72.85
78170;BME280;67412;49.892;14.490;2023-04-01T06:43:34;95730.44;;;8.44;73.13
78170;BME280;67412;49.892;14.490;2023-04-01T06:54:15;95737.09;;;8.50;73.42
78170;BME280;67412;49.892;14.490;2023-04-01T06:56:44;95739.53;;;8.54;73.10
78170;BME280;67412;49.892;14.490;2023-04-01T06:59:25;95737.84;;;8.53;72.21
78170;BME280;67412;49.892;14.490;2023-04-01T07:01:54;95740.53;;;8.49;71.35
78170;BME280;67412;49.892;14.490;2023-04-01T07:04:33;95742.88;;;8.55;72.17
78170;BME280;67412;49.892;14.490;2023-04-01T07:07:08;95737.59;;;8.61;72.09
78170;BME280;67412;49.892;14.490;2023-04-01T07:09:39;95737.25;;;8.71;72.33
78170;BME280;67412;49.892;14.490;2023-04-01T07:12:31;95742.16;;;8.78;71.47
78170;BME280;67412;49.892;14.490;2023-04-01T07:15:16;95746.50;;;8.76;71.51
78170;BME280;67412;49.892;14.490;2023-04-01T07:17:45;95741.09;;;8.85;71.06
78170;BME280;67412;49.892;14.490;2023-04-01T07:20:32;95742.97;;;9.04;72.45
78170;BME280;67412;49.892;14.490;2023-04-01T07:22:59;95745.13;;;9.16;71.03
78170;BME280;67412;49.892;14.490;2023-04-01T07:25:29;95738.50;;;9.11;69.35
78170;BME280;67412;49.892;14.490;2023-04-01T07:28:05;95742.06;;;9.07;69.83
78170;BME280;67412;49.892;14.490;2023-04-01T07:30:51;95755.53;;;9.12;71.48
78170;BME280;67412;49.892;14.490;2023-04-01T07:33:54;95743.78;;;9.06;70.99
78170;BME280;67412;49.892;14.490;2023-04-01T07:46:49;95754.34;;;9.22;69.32
78170;BME280;67412;49.892;14.490;2023-04-01T07:49:25;95760.25;;;9.24;71.09
78170;BME280;67412;49.892;14.490;2023-04-01T07:52:06;95773.78;;;9.28;68.75
78170;BME280;67412;49.892;14.490;2023-04-01T07:54:46;95764.63;;;9.20;69.89
78170;BME280;67412;49.892;14.490;2023-04-01T08:14:25;95781.47;;;9.28;68.77
78170;BME280;67412;49.892;14.490;2023-04-01T08:17:02;95782.34;;;9.27;69.11
78170;BME280;67412;49.892;14.490;2023-04-01T08:22:21;95783.03;;;9.32;67.46
78170;BME280;67412;49.892;14.490;2023-04-01T08:24:49;95775.22;;;9.36;67.06
78170;BME280;67412;49.892;14.490;2023-04-01T08:27:17;95776.03;;;9.37;68.72
78170;BME280;67412;49.892;14.490;2023-04-01T08:29:50;95770.09;;;9.36;67.73
78170;BME280;67412;49.892;14.490;2023-04-01T08:32:26;95783.56;;;9.41;66.91
78170;BME280;67412;49.892;14.490;2023-04-01T08:35:34;95771.00;;;9.58;67.98
78170;BME280;67412;49.892;14.490;2023-04-01T08:38:07;95778.59;;;9.61;66.66
78170;BME280;67412;49.892;14.490;2023-04-01T09:08:00;95783.84;;;9.82;65.91
78170;BME280;67412;49.892;14.490;2023-04-01T09:10:53;95791.97;;;9.69;65.31
78170;BME280;67412;49.892;14.490;2023-04-01T09:29:19;95791.97;;;9.69;65.88
78170;BME280;67412;49.892;14.490;2023-04-01T09:40:28;95795.56;;;9.64;65.19
78170;BME280;67412;49.892;14.490;2023-04-01T09:46:22;95792.97;;;9.65;64.76
78170;BME280;67412;49.892;14.490;2023-04-01T09:51:53;95803.00;;;9.71;64.77
78170;BME280;67412;49.892;14.490;2023-04-01T09:59:49;95803.84;;;9.72;64.88
78170;BME280;67412;49.892;14.490;2023-04-01T10:16:29;95809.84;;;9.71;64.28
78170;BME280;67412;49.892;14.490;2023-04-01T10:50:06;95808.19;;;10.18;64.55
78170;BME280;67412;49.892;14.490;2023-04-01T11:03:39;95813.34;;;10.18;64.93
78170;BME280;67412;49.892;14.490;2023-04-01T11:09:16;95812.53;;;10.16;64.15
78170;BME280;67412;49.892;14.490;2023-04-01T11:14:39;95802.22;;;10.17;64.76
78170;BME280;67412;49.892;14.490;2023-04-01T11:26:00;95813.63;;;10.09;64.19
78170;BME280;67412;49.892;14.490;2023-04-01T11:42:38;95806.75;;;10.34;64.56
78170;BME280;67412;49.892;14.490;2023-04-01T11:48:13;95807.94;;;10.47;63.19
78170;BME280;67412;49.892;14.490;2023-04-01T11:50:44;95807.06;;;10.48;61.82
78170;BME280;67412;49.892;14.490;2023-04-01T11:53:23;95804.59;;;10.45;62.58
78170;BME280;67412;49.892;14.490;2023-04-01T11:59:35;95799.81;;;10.58;62.66
78170;BME280;67412;49.892;14.490;2023-04-01T12:05:34;95798.88;;;10.82;61.15
78170;BME280;67412;49.892;14.490;2023-04-01T12:08:24;95803.59;;;10.93;62.24
78170;BME280;67412;49.892;14.490;2023-04-01T12:18:48;95802.63;;;11.17;61.98
78170;BME280;67412;49.892;14.490;2023-04-01T12:21:35;95810.94;;;11.22;61.67
78170;BME280;67412;49.892;14.490;2023-04-01T12:26:59;95821.38;;;11.19;62.86
78170;BME280;67412;49.892;14.490;2023-04-01T12:30:05;95817.00;;;11.41;62.91
78170;BME280;67412;49.892;14.490;2023-04-01T12:32:53;95817.81;;;11.22;63.83
78170;BME280;67412;49.892;14.490;2023-04-01T12:35:26;95806.53;;;11.66;63.34
78170;BME280;67412;49.892;14.490;2023-04-01T12:38:13;95808.34;;;11.64;62.40
78170;BME280;67412;49.892;14.490;2023-04-01T12:41:08;95810.34;;;11.78;61.28
78170;BME280;67412;49.892;14.490;2023-04-01T12:47:00;95804.88;;;11.85;60.38
78170;BME280;67412;49.892;14.490;2023-04-01T12:49:47;95805.09;;;11.81;59.64
78170;BME280;67412;49.892;14.490;2023-04-01T12:55:08;95803.81;;;11.89;59.43
78170;BME280;67412;49.892;14.490;2023-04-01T13:00:46;95805.69;;;11.86;59.32
78170;BME280;67412;49.892;14.490;2023-04-01T13:20:33;95801.50;;;11.63;60.71
78170;BME280;67412;49.892;14.490;2023-04-01T13:23:24;95804.41;;;11.55;59.63
78170;BME280;67412;49.892;14.490;2023-04-01T13:26:07;95806.59;;;11.64;60.99
78170;BME280;67412;49.892;14.490;2023-04-01T13:28:40;95805.28;;;11.76;60.65
78170;BME280;67412;49.892;14.490;2023-04-01T13:36:57;95809.78;;;11.51;59.92
78170;BME280;67412;49.892;14.490;2023-04-01T13:42:28;95817.38;;;11.32;63.71
78170;BME280;67412;49.892;14.490;2023-04-01T14:01:56;95804.03;;;11.85;59.45
78170;BME280;67412;49.892;14.490;2023-04-01T14:10:19;95805.19;;;11.17;60.74
78170;BME280;67412;49.892;14.490;2023-04-01T14:13:04;95813.69;;;11.18;61.33
78170;BME280;67412;49.892;14.490;2023-04-01T14:15:56;95840.56;;;11.10;64.44
78170;BME280;67412;49.892;14.490;2023-04-01T14:18:33;95835.81;;;10.80;67.08
78170;BME280;67412;49.892;14.490;2023-04-01T14:38:05;95848.09;;;10.27;69.62
78170;BME280;67412;49.892;14.490;2023-04-01T14:48:35;95848.81;;;10.53;69.39
78170;BME280;67412;49.892;14.490;2023-04-01T14:54:08;95834.28;;;10.52;69.19
78170;BME280;67412;49.892;14.490;2023-04-01T15:04:30;95836.84;;;10.96;70.15
78170;BME280;67412;49.892;14.490;2023-04-01T15:09:42;95838.59;;;10.95;68.48
78170;BME280;67412;49.892;14.490;2023-04-01T15:12:33;95829.81;;;11.01;68.14
78170;BME280;67412;49.892;14.490;2023-04-01T15:18:09;95836.09;;;10.94;68.83
78170;BME280;67412;49.892;14.490;2023-04-01T15:29:34;95842.84;;;10.53;66.54
78170;BME280;67412;49.892;14.490;2023-04-01T15:35:03;95840.06;;;10.57;67.73
78170;BME280;67412;49.892;14.490;2023-04-01T15:37:48;95838.84;;;10.68;67.50
78170;BME280;67412;49.892;14.490;2023-04-01T15:40:26;95846.53;;;10.68;66.41
78170;BME280;67412;49.892;14.490;2023-04-01T15:42:55;95847.38;;;10.68;68.08
78170;BME280;67412;49.892;14.490;2023-04-01T15:48:06;95849.16;;;10.66;67.90
78170;BME280;67412;49.892;14.490;2023-04-01T15:50:54;95850.47;;;10.76;67.25
78170;BME280;67412;49.892;14.490;2023-04-01T15:58:54;95862.44;;;10.99;66.80
78170;BME280;67412;49.892;14.490;2023-04-01T16:21:42;95880.88;;;10.18;69.83
78170;BME280;67412;49.892;14.490;2023-04-01T16:24:35;95879.81;;;10.24;69.79
78170;BME280;67412;49.892;14.490;2023-04-01T16:35:23;95894.75;;;10.38;69.36
78170;BME280;67412;49.892;14.490;2023-04-01T16:38:14;95898.84;;;10.18;70.08
78170;BME280;67412;49.892;14.490;2023-04-01T16:40:45;95899.28;;;10.05;69.16
78170;BME280;67412;49.892;14.490;2023-04-01T16:51:24;95913.34;;;9.70;69.57
78170;BME280;67412;49.892;14.490;2023-04-01T16:54:01;95923.78;;;9.64;70.08
78170;BME280;67412;49.892;14.490;2023-04-01T16:56:38;95928.22;;;9.59;70.57
78170;BME280;67412;49.892;14.490;2023-04-01T16:59:13;95929.06;;;9.59;71.01
78170;BME280;67412;49.892;14.490;2023-04-01T17:01:49;95925.78;;;9.56;70.85
78170;BME280;67412;49.892;14.490;2023-04-01T17:06:49;95928.50;;;9.50;71.65
78170;BME280;67412;49.892;14.490;2023-04-01T17:25:28;95953.09;;;9.01;74.11
78170;BME280;67412;49.892;14.490;2023-04-01T17:28:27;95952.38;;;8.98;74.22
78170;BME280;67412;49.892;14.490;2023-04-01T17:31:26;95947.44;;;8.92;75.33
78170;BME280;67412;49.892;14.490;2023-04-01T17:37:05;95953.22;;;8.98;74.83
78170;BME280;67412;49.892;14.490;2023-04-01T17:42:28;95970.75;;;8.83;75.94
78170;BME280;67412;49.892;14.490;2023-04-01T17:47:52;95970.22;;;8.71;76.30
78170;BME280;67412;49.892;14.490;2023-04-01T17:56:11;95987.97;;;8.47;77.83
78170;BME280;67412;49.892;14.490;2023-04-01T18:07:34;95995.13;;;8.34;79.80
78170;BME280;67412;49.892;14.490;2023-04-01T18:10:24;95996.16;;;8.27;80.38
78170;BME280;67412;49.892;14.490;2023-04-01T18:15:28;96009.72;;;8.32;80.55
78170;BME280;67412;49.892;14.490;2023-04-01T18:18:10;96009.66;;;8.34;79.94
78170;BME280;67412;49.892;14.490;2023-04-01T18:20:51;96007.94;;;8.34;79.17
78170;BME280;67412;49.892;14.490;2023-04-01T18:26:21;96015.31;;;8.11;80.79
78170;BME280;67412;49.892;14.490;2023-04-01T18:31:41;96017.97;;;8.08;82.32
78170;BME280;67412;49.892;14.490;2023-04-01T18:34:20;96024.84;;;8.06;82.47
78170;BME280;67412;49.892;14.490;2023-04-01T18:37:00;96027.47;;;8.03;82.42
78170;BME280;67412;49.892;14.490;2023-04-01T18:39:47;96027.47;;;8.03;82.64
78170;BME280;67412;49.892;14.490;2023-04-01T18:44:48;96040.31;;;8.01;82.97
78170;BME280;67412;49.892;14.490;2023-04-01T18:50:47;96042.81;;;8.03;82.95
78170;BME280;67412;49.892;14.490;2023-04-01T18:53:38;96048.75;;;8.05;82.89
78170;BME280;67412;49.892;14.490;2023-04-01T18:56:11;96046.09;;;8.08;82.41
78170;BME280;67412;49.892;14.490;2023-04-01T18:59:03;96043.72;;;8.00;82.55
78170;BME280;67412;49.892;14.490;2023-04-01T19:16:05;96056.41;;;8.05;82.06
78170;BME280;67412;49.892;14.490;2023-04-01T19:27:10;96060.94;;;7.94;82.21
78170;BME280;67412;49.892;14.490;2023-04-01T19:30:02;96060.88;;;7.97;82.29
78170;BME280;67412;49.892;14.490;2023-04-01T19:32:42;96060.66;;;8.06;81.10
78170;BME280;67412;49.892;14.490;2023-04-01T19:38:28;96062.47;;;8.01;81.96
78170;BME280;67412;49.892;14.490;2023-04-01T19:43:55;96070.19;;;7.99;81.80
78170;BME280;67412;49.892;14.490;2023-04-01T19:46:48;96079.72;;;7.93;82.50
78170;BME280;67412;49.892;14.490;2023-04-01T19:54:28;96084.84;;;7.93;82.32
78170;BME280;67412;49.892;14.490;2023-04-01T20:00:05;96090.88;;;7.90;82.30
78170;BME280;67412;49.892;14.490;2023-04-01T20:06:00;96085.94;;;7.83;83.11
78170;BME280;67412;49.892;14.490;2023-04-01T20:15:18;96099.72;;;7.75;83.91
78170;BME280;67412;49.892;14.490;2023-04-01T20:17:21;96097.09;;;7.78;83.62
78170;BME280;67412;49.892;14.490;2023-04-01T20:19:55;96099.66;;;7.78;83.45
78170;BME280;67412;49.892;14.490;2023-04-01T20:25:13;96092.94;;;7.74;84.03
78170;BME280;67412;49.892;14.490;2023-04-01T20:27:47;96100.69;;;7.70;84.27
78170;BME280;67412;49.892;14.490;2023-04-01T20:46:53;96095.50;;;7.73;85.45
78170;BME280;67412;49.892;14.490;2023-04-01T20:49:30;96107.59;;;7.66;85.37
78170;BME280;67412;49.892;14.490;2023-04-01T20:55:28;96111.03;;;7.65;84.45
78170;BME280;67412;49.892;14.490;2023-04-01T20:58:12;96106.84;;;7.61;85.17
78170;BME280;67412;49.892;14.490;2023-04-01T21:03:31;96110.31;;;7.60;85.05
78170;BME280;67412;49.892;14.490;2023-04-01T21:06:15;96115.34;;;7.62;85.02
78170;BME280;67412;49.892;14.490;2023-04-01T21:12:00;96121.28;;;7.64;85.09
78170;BME280;67412;49.892;14.490;2023-04-01T21:17:49;96123.84;;;7.64;84.95
78170;BME280;67412;49.892;14.490;2023-04-01T21:23:23;96125.69;;;7.57;85.02
78170;BME280;67412;49.892;14.490;2023-04-01T21:28:49;96126.44;;;7.62;85.78
78170;BME280;67412;49.892;14.490;2023-04-01T21:42:21;96128.22;;;7.57;84.69
78170;BME280;67412;49.892;14.490;2023-04-01T21:54:20;96136.88;;;7.52;85.16
78170;BME280;67412;49.892;14.490;2023-04-01T21:56:57;96136.78;;;7.56;84.90
78170;BME280;67412;49.892;14.490;2023-04-01T22:00:07;96137.72;;;7.52;85.00
78170;BME280;67412;49.892;14.490;2023-04-01T22:03:43;96142.91;;;7.49;85.34
78170;BME280;67412;49.892;14.490;2023-04-01T22:06:09;96134.41;;;7.49;85.03
78170;BME280;67412;49.892;14.490;2023-04-01T22:08:47;96139.28;;;7.58;85.11
78170;BME280;67412;49.892;14.490;2023-04-01T22:11:42;96140.22;;;7.55;84.70
78170;BME280;67412;49.892;14.490;2023-04-01T22:18:12;96144.38;;;7.61;84.79
78170;BME280;67412;49.892;14.490;2023-04-01T22:26:00;96147.09;;;7.53;85.92
78170;BME280;67412;49.892;14.490;2023-04-01T22:28:51;96143.03;;;7.43;86.52
78170;BME280;67412;49.892;14.490;2023-04-01T22:31:26;96150.88;;;7.34;87.45
78170;BME280;67412;49.892;14.490;2023-04-01T22:48:09;96160.09;;;7.41;87.26
78170;BME280;67412;49.892;14.490;2023-04-01T22:51:37;96159.25;;;7.41;87.09
78170;BME280;67412;49.892;14.490;2023-04-01T22:56:29;96160.97;;;7.42;87.15
78170;BME280;67412;49.892;14.490;2023-04-01T22:59:13;96165.06;;;7.49;87.03
78170;BME280;67412;49.892;14.490;2023-04-01T23:01:44;96165.22;;;7.41;87.14
78170;BME280;67412;49.892;14.490;2023-04-01T23:04:15;96167.63;;;7.47;86.64
78170;BME280;67412;49.892;14.490;2023-04-01T23:06:46;96162.63;;;7.43;86.66
78170;BME280;67412;49.892;14.490;2023-04-01T23:09:17;96165.22;;;7.41;86.63
78170;BME280;67412;49.892;14.490;2023-04-01T23:12:12;96170.31;;;7.41;86.62
78170;BME280;67412;49.892;14.490;2023-04-01T23:14:51;96166.09;;;7.39;86.78
78170;BME280;67412;49.892;14.490;2023-04-01T23:24:53;96180.34;;;7.50;86.47
78170;BME280;67412;49.892;14.490;2023-04-01T23:27:31;96181.25;;;7.48;86.73
78170;BME280;67412;49.892;14.490;2023-04-01T23:30:00;96184.44;;;7.59;86.56
78170;BME280;67412;49.892;14.490;2023-04-01T23:32:26;96185.34;;;7.56;86.82
78170;BME280;67412;49.892;14.490;2023-04-01T23:34:54;96195.63;;;7.53;87.20